sensor_id;sensor_type;location;lat;lon;timestamp;temperature;humidity
51500;DHT22;39101;53.478;6.158;2023-11-21T00:00:44;10.40;99.90
51500;DHT22;39101;53.478;6.158;2023-11-21T00:03:11;10.40;99.90
51500;DHT22;39101;53.478;6.158;2023-11-21T00:05:40;10.40;99.90
51500;DHT22;39101;53.478;6.158;2023-11-21T00:08:07;10.50;99.90
51500;DHT22;39101;53.478;6.158;2023-11-21T00:10:34;10.40;99.90
51500;DHT22;39101;53.478;6.158;2023-11-21T00:13:00;10.50;99.90
51500;DHT22;39101;53.478;6.158;2023-11-21T00:15:28;10.40;99.90
51500;DHT22;39101;53.478;6.158;2023-11-21T00:17:53;10.50;99.90
51500;DHT22;39101;53.478;6.158;2023-11-21T00:20:19;10.40;99.90
51500;DHT22;39101;53.478;6.158;2023-11-21T00:22:45;10.40;99.90
51500;DHT22;39101;53.478;6.158;2023-11-21T00:25:12;10.60;99.90
51500;DHT22;39101;53.478;6.158;2023-11-21T00:27:40;10.40;99.90
51500;DHT22;39101;53.478;6.158;2023-11-21T00:30:07;10.60;99.90
51500;DHT22;39101;53.478;6.158;2023-11-21T00:32:35;10.50;99.90
51500;DHT22;39101;53.478;6.158;2023-11-21T00:35:01;10.50;99.90
51500;DHT22;39101;53.478;6.158;2023-11-21T00:37:27;10.40;99.90
51500;DHT22;39101;53.478;6.158;2023-11-21T00:39:52;10.40;99.90
51500;DHT22;39101;53.478;6.158;2023-11-21T00:42:18;10.30;99.90
51500;DHT22;39101;53.478;6.158;2023-11-21T00:44:44;10.20;99.90
51500;DHT22;39101;53.478;6.158;2023-11-21T00:47:10;10.30;99.90
51500;DHT22;39101;53.478;6.158;2023-11-21T00:49:35;10.20;99.90
51500;DHT22;39101;53.478;6.158;2023-11-21T00:52:01;10.10;99.90
51500;DHT22;39101;53.478;6.158;2023-11-21T00:54:27;10.20;99.90
51500;DHT22;39101;53.478;6.158;2023-11-21T00:56:53;10.20;99.90
51500;DHT22;39101;53.478;6.158;2023-11-21T00:59:19;10.10;99.90
51500;DHT22;39101;53.478;6.158;2023-11-21T01:01:44;10.20;99.90
51500;DHT22;39101;53.478;6.158;2023-11-21T01:04:10;10.20;99.90
51500;DHT22;39101;53.478;6.158;2023-11-21T01:06:36;10.20;99.90
51500;DHT22;39101;53.478;6.158;2023-11-21T01:09:02;10.20;99.90
51500;DHT22;39101;53.478;6.158;2023-11-21T01:11:34;10.30;99.90
51500;DHT22;39101;53.478;6.158;2023-11-21T01:14:01;10.10;99.90
51500;DHT22;39101;53.478;6.158;2023-11-21T01:16:28;10.10;99.90
51500;DHT22;39101;53.478;6.158;2023-11-21T01:18:54;10.30;99.90
51500;DHT22;39101;53.478;6.158;2023-11-21T01:21:20;10.20;99.90
51500;DHT22;39101;53.478;6.158;2023-11-21T01:23:46;10.30;99.90
51500;DHT22;39101;53.478;6.158;2023-11-21T01:26:13;10.20;99.90
51500;DHT22;39101;53.478;6.158;2023-11-21T01:28:38;10.30;99.90
51500;DHT22;39101;53.478;6.158;2023-11-21T01:31:04;10.20;99.90
51500;DHT22;39101;53.478;6.158;2023-11-21T01:33:30;10.30;99.90
51500;DHT22;39101;53.478;6.158;2023-11-21T01:35:55;10.20;99.90
51500;DHT22;39101;53.478;6.158;2023-11-21T01:38:21;10.30;99.90
51500;DHT22;39101;53.478;6.158;2023-11-21T01:40:47;10.20;99.90
51500;DHT22;39101;53.478;6.158;2023-11-21T01:43:13;10.30;99.90
51500;DHT22;39101;53.478;6.158;2023-11-21T01:45:39;10.30;99.90
51500;DHT22;39101;53.478;6.158;2023-11-21T01:48:05;10.40;99.90
51500;DHT22;39101;53.478;6.158;2023-11-21T01:50:32;10.30;99.90
51500;DHT22;39101;53.478;6.158;2023-11-21T01:53:00;10.30;99.90
51500;DHT22;39101;53.478;6.158;2023-11-21T01:55:27;10.20;99.90
51500;DHT22;39101;53.478;6.158;2023-11-21T01:57:54;10.20;99.90
51500;DHT22;39101;53.478;6.158;2023-11-21T02:00:20;10.40;99.90
51500;DHT22;39101;53.478;6.158;2023-11-21T02:02:47;10.30;99.90
51500;DHT22;39101;53.478;6.158;2023-11-21T02:05:15;10.10;99.90
51500;DHT22;39101;53.478;6.158;2023-11-21T02:07:42;10.20;99.90
51500;DHT22;39101;53.478;6.158;2023-11-21T02:10:08;10.30;99.90
51500;DHT22;39101;53.478;6.158;2023-11-21T02:12:35;10.30;99.90
51500;DHT22;39101;53.478;6.158;2023-11-21T02:15:04;10.30;99.90
51500;DHT22;39101;53.478;6.158;2023-11-21T02:17:35;10.10;99.90
51500;DHT22;39101;53.478;6.158;2023-11-21T02:20:01;10.20;99.90
51500;DHT22;39101;53.478;6.158;2023-11-21T02:22:30;10.20;99.90
51500;DHT22;39101;53.478;6.158;2023-11-21T02:24:58;10.20;99.90
51500;DHT22;39101;53.478;6.158;2023-11-21T02:27:24;10.20;99.90
51500;DHT22;39101;53.478;6.158;2023-11-21T02:29:50;10.20;99.90
51500;DHT22;39101;53.478;6.158;2023-11-21T02:32:16;10.10;99.90
51500;DHT22;39101;53.478;6.158;2023-11-21T02:34:44;10.20;99.90
51500;DHT22;39101;53.478;6.158;2023-11-21T02:37:10;10.00;99.90
51500;DHT22;39101;53.478;6.158;2023-11-21T02:39:35;10.10;99.90
51500;DHT22;39101;53.478;6.158;2023-11-21T02:42:01;10.00;99.90
51500;DHT22;39101;53.478;6.158;2023-11-21T02:44:27;10.10;99.90
51500;DHT22;39101;53.478;6.158;2023-11-21T02:46:52;10.10;99.90
51500;DHT22;39101;53.478;6.158;2023-11-21T02:49:18;10.20;99.90
51500;DHT22;39101;53.478;6.158;2023-11-21T02:51:43;10.20;99.90
51500;DHT22;39101;53.478;6.158;2023-11-21T02:54:09;10.20;99.90
51500;DHT22;39101;53.478;6.158;2023-11-21T02:56:35;10.10;99.90
51500;DHT22;39101;53.478;6.158;2023-11-21T02:59:01;10.30;99.90
51500;DHT22;39101;53.478;6.158;2023-11-21T03:01:27;10.20;99.90
51500;DHT22;39101;53.478;6.158;2023-11-21T03:03:53;10.10;99.90
51500;DHT22;39101;53.478;6.158;2023-11-21T03:06:21;10.10;99.90
51500;DHT22;39101;53.478;6.158;2023-11-21T03:08:47;10.10;99.90
51500;DHT22;39101;53.478;6.158;2023-11-21T03:11:13;10.10;99.90
51500;DHT22;39101;53.478;6.158;2023-11-21T03:13:40;10.10;99.90
51500;DHT22;39101;53.478;6.158;2023-11-21T03:16:11;10.20;99.90
51500;DHT22;39101;53.478;6.158;2023-11-21T03:18:37;10.00;99.90
51500;DHT22;39101;53.478;6.158;2023-11-21T03:21:04;10.20;99.90
51500;DHT22;39101;53.478;6.158;2023-11-21T03:23:30;10.10;99.90
51500;DHT22;39101;53.478;6.158;2023-11-21T03:25:56;10.10;99.90
51500;DHT22;39101;53.478;6.158;2023-11-21T03:28:22;10.10;99.90
51500;DHT22;39101;53.478;6.158;2023-11-21T03:30:49;9.90;99.90
51500;DHT22;39101;53.478;6.158;2023-11-21T03:33:14;9.90;99.90
51500;DHT22;39101;53.478;6.158;2023-11-21T03:35:40;10.00;99.90
51500;DHT22;39101;53.478;6.158;2023-11-21T03:38:07;10.00;99.90
51500;DHT22;39101;53.478;6.158;2023-11-21T03:40:33;10.00;99.90
51500;DHT22;39101;53.478;6.158;2023-11-21T03:42:59;9.90;99.90
51500;DHT22;39101;53.478;6.158;2023-11-21T03:45:24;10.00;99.90
51500;DHT22;39101;53.478;6.158;2023-11-21T03:47:50;10.10;99.90
51500;DHT22;39101;53.478;6.158;2023-11-21T03:50:16;10.00;99.90
51500;DHT22;39101;53.478;6.158;2023-11-21T03:52:42;9.80;99.90
51500;DHT22;39101;53.478;6.158;2023-11-21T03:55:08;9.90;99.90
51500;DHT22;39101;53.478;6.158;2023-11-21T03:57:34;9.70;99.90
51500;DHT22;39101;53.478;6.158;2023-11-21T03:59:59;9.50;99.90
51500;DHT22;39101;53.478;6.158;2023-11-21T04:02:25;9.60;99.90
51500;DHT22;39101;53.478;6.158;2023-11-21T04:04:51;9.50;99.90
51500;DHT22;39101;53.478;6.158;2023-11-21T04:07:17;9.60;99.90
51500;DHT22;39101;53.478;6.158;2023-11-21T04:09:43;9.40;99.90
51500;DHT22;39101;53.478;6.158;2023-11-21T04:12:08;9.50;99.90
51500;DHT22;39101;53.478;6.158;2023-11-21T04:14:35;9.50;99.90
51500;DHT22;39101;53.478;6.158;2023-11-21T04:17:01;9.40;99.90
51500;DHT22;39101;53.478;6.158;2023-11-21T04:19:26;9.40;99.90
51500;DHT22;39101;53.478;6.158;2023-11-21T04:21:52;9.40;99.90
51500;DHT22;39101;53.478;6.158;2023-11-21T04:24:18;9.40;99.90
51500;DHT22;39101;53.478;6.158;2023-11-21T04:26:44;9.20;99.90
51500;DHT22;39101;53.478;6.158;2023-11-21T04:29:09;9.30;99.90
51500;DHT22;39101;53.478;6.158;2023-11-21T04:31:35;9.20;99.90
51500;DHT22;39101;53.478;6.158;2023-11-21T04:34:01;9.40;99.90
51500;DHT22;39101;53.478;6.158;2023-11-21T04:36:26;9.10;99.90
51500;DHT22;39101;53.478;6.158;2023-11-21T04:38:52;9.30;99.90
51500;DHT22;39101;53.478;6.158;2023-11-21T04:41:18;9.30;99.90
51500;DHT22;39101;53.478;6.158;2023-11-21T04:43:43;9.30;99.90
51500;DHT22;39101;53.478;6.158;2023-11-21T04:46:09;9.10;99.90
51500;DHT22;39101;53.478;6.158;2023-11-21T04:48:34;9.20;99.90
51500;DHT22;39101;53.478;6.158;2023-11-21T04:51:00;9.10;99.90
51500;DHT22;39101;53.478;6.158;2023-11-21T04:53:26;9.10;99.90
51500;DHT22;39101;53.478;6.158;2023-11-21T04:55:52;9.20;99.90
51500;DHT22;39101;53.478;6.158;2023-11-21T04:58:18;9.10;99.90
51500;DHT22;39101;53.478;6.158;2023-11-21T05:00:44;9.20;99.90
51500;DHT22;39101;53.478;6.158;2023-11-21T05:03:10;9.20;99.90
51500;DHT22;39101;53.478;6.158;2023-11-21T05:05:36;9.20;99.90
51500;DHT22;39101;53.478;6.158;2023-11-21T05:08:02;9.10;99.90
51500;DHT22;39101;53.478;6.158;2023-11-21T05:10:28;9.00;99.90
51500;DHT22;39101;53.478;6.158;2023-11-21T05:12:55;9.00;99.90
51500;DHT22;39101;53.478;6.158;2023-11-21T05:15:21;8.90;99.90
51500;DHT22;39101;53.478;6.158;2023-11-21T05:17:47;8.80;99.90
51500;DHT22;39101;53.478;6.158;2023-11-21T05:20:15;8.90;99.90
51500;DHT22;39101;53.478;6.158;2023-11-21T05:22:49;8.80;99.90
51500;DHT22;39101;53.478;6.158;2023-11-21T05:25:16;8.90;99.90
51500;DHT22;39101;53.478;6.158;2023-11-21T05:27:44;8.80;99.90
51500;DHT22;39101;53.478;6.158;2023-11-21T05:30:10;8.90;99.90
51500;DHT22;39101;53.478;6.158;2023-11-21T05:32:38;8.90;99.90
51500;DHT22;39101;53.478;6.158;2023-11-21T05:35:04;9.00;99.90
51500;DHT22;39101;53.478;6.158;2023-11-21T05:37:35;8.90;99.90
51500;DHT22;39101;53.478;6.158;2023-11-21T05:40:01;8.90;99.90
51500;DHT22;39101;53.478;6.158;2023-11-21T05:42:32;8.80;99.90
51500;DHT22;39101;53.478;6.158;2023-11-21T05:44:58;8.90;99.90
51500;DHT22;39101;53.478;6.158;2023-11-21T05:47:45;9.00;99.90
51500;DHT22;39101;53.478;6.158;2023-11-21T05:50:13;8.90;99.90
51500;DHT22;39101;53.478;6.158;2023-11-21T05:52:44;8.90;99.90
51500;DHT22;39101;53.478;6.158;2023-11-21T05:55:10;9.00;99.90
51500;DHT22;39101;53.478;6.158;2023-11-21T05:57:37;8.90;99.90
51500;DHT22;39101;53.478;6.158;2023-11-21T06:00:08;8.90;99.90
51500;DHT22;39101;53.478;6.158;2023-11-21T06:02:40;8.80;99.90
51500;DHT22;39101;53.478;6.158;2023-11-21T06:05:07;8.80;99.90
51500;DHT22;39101;53.478;6.158;2023-11-21T06:07:32;8.90;99.90
51500;DHT22;39101;53.478;6.158;2023-11-21T06:09:58;8.80;99.90
51500;DHT22;39101;53.478;6.158;2023-11-21T06:12:24;8.90;99.90
51500;DHT22;39101;53.478;6.158;2023-11-21T06:14:50;8.70;99.90
51500;DHT22;39101;53.478;6.158;2023-11-21T06:17:16;8.70;99.90
51500;DHT22;39101;53.478;6.158;2023-11-21T06:19:43;8.70;99.90
51500;DHT22;39101;53.478;6.158;2023-11-21T06:22:11;8.80;99.90
51500;DHT22;39101;53.478;6.158;2023-11-21T06:24:36;8.70;99.90
51500;DHT22;39101;53.478;6.158;2023-11-21T06:27:04;8.60;99.90
51500;DHT22;39101;53.478;6.158;2023-11-21T06:29:30;8.70;99.90
51500;DHT22;39101;53.478;6.158;2023-11-21T06:31:57;8.60;99.90
51500;DHT22;39101;53.478;6.158;2023-11-21T06:34:23;8.70;99.90
51500;DHT22;39101;53.478;6.158;2023-11-21T06:36:49;8.80;99.90
51500;DHT22;39101;53.478;6.158;2023-11-21T06:39:15;8.70;99.90
51500;DHT22;39101;53.478;6.158;2023-11-21T06:41:42;8.70;99.90
51500;DHT22;39101;53.478;6.158;2023-11-21T06:44:08;8.70;99.90
51500;DHT22;39101;53.478;6.158;2023-11-21T06:46:34;8.70;99.90
51500;DHT22;39101;53.478;6.158;2023-11-21T06:49:00;8.60;99.90
51500;DHT22;39101;53.478;6.158;2023-11-21T06:51:25;8.70;99.90
51500;DHT22;39101;53.478;6.158;2023-11-21T06:53:51;8.60;99.90
51500;DHT22;39101;53.478;6.158;2023-11-21T06:56:17;8.60;99.90
51500;DHT22;39101;53.478;6.158;2023-11-21T06:58:44;8.90;99.90
51500;DHT22;39101;53.478;6.158;2023-11-21T07:01:11;8.60;99.90
51500;DHT22;39101;53.478;6.158;2023-11-21T07:03:37;8.70;99.90
51500;DHT22;39101;53.478;6.158;2023-11-21T07:06:03;8.60;99.90
51500;DHT22;39101;53.478;6.158;2023-11-21T07:08:29;8.60;99.90
51500;DHT22;39101;53.478;6.158;2023-11-21T07:10:55;8.60;99.90
51500;DHT22;39101;53.478;6.158;2023-11-21T07:13:20;8.50;99.90
51500;DHT22;39101;53.478;6.158;2023-11-21T07:15:47;8.50;99.90
51500;DHT22;39101;53.478;6.158;2023-11-21T07:18:13;8.60;99.90
51500;DHT22;39101;53.478;6.158;2023-11-21T07:20:39;8.50;99.90
51500;DHT22;39101;53.478;6.158;2023-11-21T07:23:05;8.60;99.90
51500;DHT22;39101;53.478;6.158;2023-11-21T07:25:31;8.50;99.90
51500;DHT22;39101;53.478;6.158;2023-11-21T07:27:57;8.60;99.90
51500;DHT22;39101;53.478;6.158;2023-11-21T07:30:23;8.50;99.90
51500;DHT22;39101;53.478;6.158;2023-11-21T07:32:49;8.60;99.90
51500;DHT22;39101;53.478;6.158;2023-11-21T07:35:14;8.50;99.90
51500;DHT22;39101;53.478;6.158;2023-11-21T07:37:40;8.60;99.90
51500;DHT22;39101;53.478;6.158;2023-11-21T07:40:06;8.50;99.90
51500;DHT22;39101;53.478;6.158;2023-11-21T07:42:34;8.40;99.90
51500;DHT22;39101;53.478;6.158;2023-11-21T07:45:00;8.50;99.90
51500;DHT22;39101;53.478;6.158;2023-11-21T07:47:25;8.50;99.90
51500;DHT22;39101;53.478;6.158;2023-11-21T07:49:53;8.40;99.90
51500;DHT22;39101;53.478;6.158;2023-11-21T07:52:21;8.40;99.90
51500;DHT22;39101;53.478;6.158;2023-11-21T07:54:47;8.50;99.90
51500;DHT22;39101;53.478;6.158;2023-11-21T07:57:13;8.60;99.90
51500;DHT22;39101;53.478;6.158;2023-11-21T07:59:42;8.50;99.90
51500;DHT22;39101;53.478;6.158;2023-11-21T08:02:07;8.50;99.90
51500;DHT22;39101;53.478;6.158;2023-11-21T08:04:33;8.40;99.90
51500;DHT22;39101;53.478;6.158;2023-11-21T08:07:01;8.40;99.90
51500;DHT22;39101;53.478;6.158;2023-11-21T08:09:27;8.40;99.90
51500;DHT22;39101;53.478;6.158;2023-11-21T08:11:53;8.40;99.90
51500;DHT22;39101;53.478;6.158;2023-11-21T08:14:19;8.30;99.90
51500;DHT22;39101;53.478;6.158;2023-11-21T08:16:45;8.40;99.90
51500;DHT22;39101;53.478;6.158;2023-11-21T08:19:11;8.50;99.90
51500;DHT22;39101;53.478;6.158;2023-11-21T08:21:37;8.40;99.90
51500;DHT22;39101;53.478;6.158;2023-11-21T08:24:06;8.40;99.90
51500;DHT22;39101;53.478;6.158;2023-11-21T08:26:38;8.40;99.90
51500;DHT22;39101;53.478;6.158;2023-11-21T08:29:04;8.40;99.90
51500;DHT22;39101;53.478;6.158;2023-11-21T08:31:32;8.30;99.90
51500;DHT22;39101;53.478;6.158;2023-11-21T08:33:58;8.40;99.90
51500;DHT22;39101;53.478;6.158;2023-11-21T08:36:24;8.40;99.90
51500;DHT22;39101;53.478;6.158;2023-11-21T08:38:51;8.40;99.90
51500;DHT22;39101;53.478;6.158;2023-11-21T08:41:20;8.50;99.90
51500;DHT22;39101;53.478;6.158;2023-11-21T08:43:50;8.40;99.90
51500;DHT22;39101;53.478;6.158;2023-11-21T08:46:16;8.50;99.90
51500;DHT22;39101;53.478;6.158;2023-11-21T08:48:45;8.40;99.90
51500;DHT22;39101;53.478;6.158;2023-11-21T08:51:11;8.50;99.90
51500;DHT22;39101;53.478;6.158;2023-11-21T08:53:39;8.40;99.90
51500;DHT22;39101;53.478;6.158;2023-11-21T08:56:06;8.40;99.90
51500;DHT22;39101;53.478;6.158;2023-11-21T08:58:32;8.40;99.90
51500;DHT22;39101;53.478;6.158;2023-11-21T09:00:58;8.50;99.90
51500;DHT22;39101;53.478;6.158;2023-11-21T09:03:24;8.50;99.90
51500;DHT22;39101;53.478;6.158;2023-11-21T09:05:50;8.40;99.90
51500;DHT22;39101;53.478;6.158;2023-11-21T09:08:16;8.40;99.90
51500;DHT22;39101;53.478;6.158;2023-11-21T09:10:42;8.40;99.90
51500;DHT22;39101;53.478;6.158;2023-11-21T09:13:08;8.50;99.90
51500;DHT22;39101;53.478;6.158;2023-11-21T09:15:34;8.30;99.90
51500;DHT22;39101;53.478;6.158;2023-11-21T09:18:00;8.40;99.90
51500;DHT22;39101;53.478;6.158;2023-11-21T09:20:27;8.30;99.90
51500;DHT22;39101;53.478;6.158;2023-11-21T09:22:53;8.40;99.90
51500;DHT22;39101;53.478;6.158;2023-11-21T09:25:21;8.50;99.90
51500;DHT22;39101;53.478;6.158;2023-11-21T09:27:46;8.50;99.90
51500;DHT22;39101;53.478;6.158;2023-11-21T09:30:12;8.60;99.90
51500;DHT22;39101;53.478;6.158;2023-11-21T09:32:39;8.50;99.90
51500;DHT22;39101;53.478;6.158;2023-11-21T09:35:06;8.60;99.90
51500;DHT22;39101;53.478;6.158;2023-11-21T09:37:34;8.50;99.90
51500;DHT22;39101;53.478;6.158;2023-11-21T09:39:59;8.60;99.90
51500;DHT22;39101;53.478;6.158;2023-11-21T09:42:57;8.60;99.90
51500;DHT22;39101;53.478;6.158;2023-11-21T09:45:34;8.60;99.90
51500;DHT22;39101;53.478;6.158;2023-11-21T09:48:00;8.70;99.90
51500;DHT22;39101;53.478;6.158;2023-11-21T09:50:27;8.60;99.90
51500;DHT22;39101;53.478;6.158;2023-11-21T09:53:16;8.40;99.90
51500;DHT22;39101;53.478;6.158;2023-11-21T09:55:43;8.40;99.90
51500;DHT22;39101;53.478;6.158;2023-11-21T09:58:10;8.30;99.90
51500;DHT22;39101;53.478;6.158;2023-11-21T10:00:46;8.30;99.90
51500;DHT22;39101;53.478;6.158;2023-11-21T10:03:12;8.20;99.90
51500;DHT22;39101;53.478;6.158;2023-11-21T10:05:40;8.20;99.90
51500;DHT22;39101;53.478;6.158;2023-11-21T10:08:11;8.20;99.90
51500;DHT22;39101;53.478;6.158;2023-11-21T10:10:44;8.20;99.90
51500;DHT22;39101;53.478;6.158;2023-11-21T10:13:12;8.30;99.90
51500;DHT22;39101;53.478;6.158;2023-11-21T10:15:38;8.20;99.90
51500;DHT22;39101;53.478;6.158;2023-11-21T10:18:09;8.30;99.90
51500;DHT22;39101;53.478;6.158;2023-11-21T10:20:35;8.30;99.90
51500;DHT22;39101;53.478;6.158;2023-11-21T10:23:03;8.20;99.90
51500;DHT22;39101;53.478;6.158;2023-11-21T10:25:32;8.20;99.90
51500;DHT22;39101;53.478;6.158;2023-11-21T10:27:59;8.20;99.90
51500;DHT22;39101;53.478;6.158;2023-11-21T10:30:37;8.30;99.90
51500;DHT22;39101;53.478;6.158;2023-11-21T10:33:07;8.40;99.90
51500;DHT22;39101;53.478;6.158;2023-11-21T10:35:48;8.40;99.90
51500;DHT22;39101;53.478;6.158;2023-11-21T10:38:20;8.40;99.90
51500;DHT22;39101;53.478;6.158;2023-11-21T10:40:50;8.50;99.90
51500;DHT22;39101;53.478;6.158;2023-11-21T10:43:16;8.50;99.90
51500;DHT22;39101;53.478;6.158;2023-11-21T10:45:43;8.70;99.90
51500;DHT22;39101;53.478;6.158;2023-11-21T10:48:13;8.60;99.90
51500;DHT22;39101;53.478;6.158;2023-11-21T10:50:41;8.70;99.90
51500;DHT22;39101;53.478;6.158;2023-11-21T10:53:07;8.90;99.90
51500;DHT22;39101;53.478;6.158;2023-11-21T10:55:34;8.90;99.90
51500;DHT22;39101;53.478;6.158;2023-11-21T10:58:01;9.00;99.90
51500;DHT22;39101;53.478;6.158;2023-11-21T11:00:28;9.00;99.90
51500;DHT22;39101;53.478;6.158;2023-11-21T11:02:55;9.00;99.90
51500;DHT22;39101;53.478;6.158;2023-11-21T11:05:23;9.00;99.90
51500;DHT22;39101;53.478;6.158;2023-11-21T11:07:52;9.00;99.90
51500;DHT22;39101;53.478;6.158;2023-11-21T11:10:25;9.00;99.90
51500;DHT22;39101;53.478;6.158;2023-11-21T11:12:56;8.90;99.90
51500;DHT22;39101;53.478;6.158;2023-11-21T11:15:22;8.90;99.90
51500;DHT22;39101;53.478;6.158;2023-11-21T11:17:48;8.80;99.90
51500;DHT22;39101;53.478;6.158;2023-11-21T11:20:15;8.90;99.90
51500;DHT22;39101;53.478;6.158;2023-11-21T11:23:10;8.80;99.90
51500;DHT22;39101;53.478;6.158;2023-11-21T11:25:56;8.90;99.90
51500;DHT22;39101;53.478;6.158;2023-11-21T11:39:29;8.70;99.90
51500;DHT22;39101;53.478;6.158;2023-11-21T11:41:57;8.60;99.90
51500;DHT22;39101;53.478;6.158;2023-11-21T11:47:25;8.50;99.90
51500;DHT22;39101;53.478;6.158;2023-11-21T11:52:33;8.50;99.90
51500;DHT22;39101;53.478;6.158;2023-11-21T11:55:00;8.50;99.90
51500;DHT22;39101;53.478;6.158;2023-11-21T11:57:33;8.40;99.90
51500;DHT22;39101;53.478;6.158;2023-11-21T12:02:59;8.50;99.90
51500;DHT22;39101;53.478;6.158;2023-11-21T12:05:27;8.40;99.90
51500;DHT22;39101;53.478;6.158;2023-11-21T12:07:57;8.40;99.90
51500;DHT22;39101;53.478;6.158;2023-11-21T12:10:30;8.50;99.90
51500;DHT22;39101;53.478;6.158;2023-11-21T12:13:00;8.40;99.90
51500;DHT22;39101;53.478;6.158;2023-11-21T12:15:27;8.50;99.90
51500;DHT22;39101;53.478;6.158;2023-11-21T12:17:56;8.60;99.90
51500;DHT22;39101;53.478;6.158;2023-11-21T12:20:23;8.60;99.90
51500;DHT22;39101;53.478;6.158;2023-11-21T12:22:57;8.70;99.90
51500;DHT22;39101;53.478;6.158;2023-11-21T12:25:26;8.70;99.90
51500;DHT22;39101;53.478;6.158;2023-11-21T12:27:55;8.70;99.90
51500;DHT22;39101;53.478;6.158;2023-11-21T12:30:26;8.60;99.90
51500;DHT22;39101;53.478;6.158;2023-11-21T12:32:55;8.60;99.90
51500;DHT22;39101;53.478;6.158;2023-11-21T12:35:23;8.50;99.90
51500;DHT22;39101;53.478;6.158;2023-11-21T12:37:52;8.50;99.90
51500;DHT22;39101;53.478;6.158;2023-11-21T12:40:18;8.50;99.90
51500;DHT22;39101;53.478;6.158;2023-11-21T12:42:48;8.50;99.90
51500;DHT22;39101;53.478;6.158;2023-11-21T12:45:20;8.40;99.90
51500;DHT22;39101;53.478;6.158;2023-11-21T12:48:04;8.60;99.90
51500;DHT22;39101;53.478;6.158;2023-11-21T12:50:34;8.50;99.90
51500;DHT22;39101;53.478;6.158;2023-11-21T12:53:10;8.50;99.90
51500;DHT22;39101;53.478;6.158;2023-11-21T12:55:38;8.40;99.90
51500;DHT22;39101;53.478;6.158;2023-11-21T12:58:06;8.40;99.90
51500;DHT22;39101;53.478;6.158;2023-11-21T13:00:35;8.50;99.90
51500;DHT22;39101;53.478;6.158;2023-11-21T13:03:06;7.80;99.90
51500;DHT22;39101;53.478;6.158;2023-11-21T13:05:39;8.40;99.90
51500;DHT22;39101;53.478;6.158;2023-11-21T13:08:08;8.40;99.90
51500;DHT22;39101;53.478;6.158;2023-11-21T13:10:37;8.40;99.90
51500;DHT22;39101;53.478;6.158;2023-11-21T13:13:06;8.40;99.90
51500;DHT22;39101;53.478;6.158;2023-11-21T13:15:38;8.40;99.90
51500;DHT22;39101;53.478;6.158;2023-11-21T13:18:04;8.40;99.90
51500;DHT22;39101;53.478;6.158;2023-11-21T13:20:29;8.40;99.90
51500;DHT22;39101;53.478;6.158;2023-11-21T13:22:56;8.30;99.90
51500;DHT22;39101;53.478;6.158;2023-11-21T13:25:27;8.20;99.90
51500;DHT22;39101;53.478;6.158;2023-11-21T13:27:54;8.20;99.90
51500;DHT22;39101;53.478;6.158;2023-11-21T13:30:20;8.40;99.90
51500;DHT22;39101;53.478;6.158;2023-11-21T13:32:52;8.10;99.90
51500;DHT22;39101;53.478;6.158;2023-11-21T13:35:19;8.20;99.90
51500;DHT22;39101;53.478;6.158;2023-11-21T13:37:50;7.90;99.90
51500;DHT22;39101;53.478;6.158;2023-11-21T13:40:22;7.90;99.90
51500;DHT22;39101;53.478;6.158;2023-11-21T13:42:55;7.90;99.90
51500;DHT22;39101;53.478;6.158;2023-11-21T13:45:23;7.90;99.90
51500;DHT22;39101;53.478;6.158;2023-11-21T13:47:51;7.80;99.90
51500;DHT22;39101;53.478;6.158;2023-11-21T13:50:18;7.90;99.90
51500;DHT22;39101;53.478;6.158;2023-11-21T13:52:49;7.90;99.90
51500;DHT22;39101;53.478;6.158;2023-11-21T13:55:16;7.90;99.90
51500;DHT22;39101;53.478;6.158;2023-11-21T13:57:42;7.90;99.90
51500;DHT22;39101;53.478;6.158;2023-11-21T14:00:11;7.80;99.90
51500;DHT22;39101;53.478;6.158;2023-11-21T14:02:57;7.80;99.90
51500;DHT22;39101;53.478;6.158;2023-11-21T14:05:29;7.80;99.90
51500;DHT22;39101;53.478;6.158;2023-11-21T14:07:58;7.80;99.90
51500;DHT22;39101;53.478;6.158;2023-11-21T14:10:33;7.80;99.90
51500;DHT22;39101;53.478;6.158;2023-11-21T14:13:06;7.90;99.90
51500;DHT22;39101;53.478;6.158;2023-11-21T14:15:32;7.80;99.90
51500;DHT22;39101;53.478;6.158;2023-11-21T14:18:02;7.80;99.90
51500;DHT22;39101;53.478;6.158;2023-11-21T14:20:33;7.80;99.90
51500;DHT22;39101;53.478;6.158;2023-11-21T14:23:01;7.80;99.90
51500;DHT22;39101;53.478;6.158;2023-11-21T14:25:27;7.80;99.90
51500;DHT22;39101;53.478;6.158;2023-11-21T14:27:53;7.80;99.90
51500;DHT22;39101;53.478;6.158;2023-11-21T14:30:19;7.70;99.90
51500;DHT22;39101;53.478;6.158;2023-11-21T14:32:47;7.80;99.90
51500;DHT22;39101;53.478;6.158;2023-11-21T14:35:14;7.80;99.90
51500;DHT22;39101;53.478;6.158;2023-11-21T14:37:40;7.70;99.90
51500;DHT22;39101;53.478;6.158;2023-11-21T14:40:06;7.70;99.90
51500;DHT22;39101;53.478;6.158;2023-11-21T14:42:33;7.70;99.90
51500;DHT22;39101;53.478;6.158;2023-11-21T14:44:59;7.70;99.90
51500;DHT22;39101;53.478;6.158;2023-11-21T14:47:25;7.70;99.90
51500;DHT22;39101;53.478;6.158;2023-11-21T14:49:52;7.70;99.90
51500;DHT22;39101;53.478;6.158;2023-11-21T14:52:22;7.70;99.90
51500;DHT22;39101;53.478;6.158;2023-11-21T14:55:01;7.60;99.90
51500;DHT22;39101;53.478;6.158;2023-11-21T14:57:45;7.60;99.90
51500;DHT22;39101;53.478;6.158;2023-11-21T15:00:19;7.60;99.90
51500;DHT22;39101;53.478;6.158;2023-11-21T15:03:17;7.60;99.90
51500;DHT22;39101;53.478;6.158;2023-11-21T15:06:18;7.50;99.90
51500;DHT22;39101;53.478;6.158;2023-11-21T15:08:57;7.50;99.90
51500;DHT22;39101;53.478;6.158;2023-11-21T15:11:43;7.70;99.90
51500;DHT22;39101;53.478;6.158;2023-11-21T15:14:09;7.40;99.90
51500;DHT22;39101;53.478;6.158;2023-11-21T15:16:36;7.40;99.90
51500;DHT22;39101;53.478;6.158;2023-11-21T15:19:08;7.30;99.90
51500;DHT22;39101;53.478;6.158;2023-11-21T15:21:36;7.40;99.90
51500;DHT22;39101;53.478;6.158;2023-11-21T15:24:02;7.30;99.90
51500;DHT22;39101;53.478;6.158;2023-11-21T15:26:28;7.30;99.90
51500;DHT22;39101;53.478;6.158;2023-11-21T15:28:54;7.50;99.90
51500;DHT22;39101;53.478;6.158;2023-11-21T15:31:19;7.30;99.90
51500;DHT22;39101;53.478;6.158;2023-11-21T15:33:47;7.30;99.90
51500;DHT22;39101;53.478;6.158;2023-11-21T15:36:13;7.20;99.90
51500;DHT22;39101;53.478;6.158;2023-11-21T15:38:40;7.20;99.90
51500;DHT22;39101;53.478;6.158;2023-11-21T15:41:06;7.20;99.90
51500;DHT22;39101;53.478;6.158;2023-11-21T15:43:35;7.20;99.90
51500;DHT22;39101;53.478;6.158;2023-11-21T15:46:01;7.30;99.90
51500;DHT22;39101;53.478;6.158;2023-11-21T15:48:31;7.30;99.90
51500;DHT22;39101;53.478;6.158;2023-11-21T15:50:57;7.20;99.90
51500;DHT22;39101;53.478;6.158;2023-11-21T15:53:24;7.10;99.90
51500;DHT22;39101;53.478;6.158;2023-11-21T15:55:50;7.20;99.90
51500;DHT22;39101;53.478;6.158;2023-11-21T15:58:16;7.20;99.90
51500;DHT22;39101;53.478;6.158;2023-11-21T16:00:42;7.30;99.90
51500;DHT22;39101;53.478;6.158;2023-11-21T16:03:07;7.20;99.90
51500;DHT22;39101;53.478;6.158;2023-11-21T16:05:35;7.20;99.90